sensor_id;sensor_type;location;lat;lon;timestamp;temperature;humidity
19945;DHT22;10134;50.952;6.930;2022-07-09T00:02:20;22.40;90.60
19945;DHT22;10134;50.952;6.930;2022-07-09T00:04:47;22.40;90.60
19945;DHT22;10134;50.952;6.930;2022-07-09T00:07:15;22.30;90.70
19945;DHT22;10134;50.952;6.930;2022-07-09T00:09:42;22.30;90.70
19945;DHT22;10134;50.952;6.930;2022-07-09T00:12:09;22.30;90.80
19945;DHT22;10134;50.952;6.930;2022-07-09T00:14:36;22.30;91.00
19945;DHT22;10134;50.952;6.930;2022-07-09T00:17:04;22.30;91.10
19945;DHT22;10134;50.952;6.930;2022-07-09T00:19:31;22.20;91.10
19945;DHT22;10134;50.952;6.930;2022-07-09T00:21:59;22.20;91.20
19945;DHT22;10134;50.952;6.930;2022-07-09T00:24:26;22.20;91.20
19945;DHT22;10134;50.952;6.930;2022-07-09T00:26:53;22.20;91.30
19945;DHT22;10134;50.952;6.930;2022-07-09T00:29:20;22.20;91.40
19945;DHT22;10134;50.952;6.930;2022-07-09T00:31:48;22.20;91.40
19945;DHT22;10134;50.952;6.930;2022-07-09T00:34:15;22.10;91.50
19945;DHT22;10134;50.952;6.930;2022-07-09T00:36:42;22.10;91.70
19945;DHT22;10134;50.952;6.930;2022-07-09T00:39:10;22.10;91.80
19945;DHT22;10134;50.952;6.930;2022-07-09T00:41:37;22.10;91.80
19945;DHT22;10134;50.952;6.930;2022-07-09T00:44:04;22.00;91.90
19945;DHT22;10134;50.952;6.930;2022-07-09T00:46:31;22.00;92.10
19945;DHT22;10134;50.952;6.930;2022-07-09T00:48:59;22.00;92.10
19945;DHT22;10134;50.952;6.930;2022-07-09T00:51:30;22.00;92.30
19945;DHT22;10134;50.952;6.930;2022-07-09T00:54:00;22.00;92.40
19945;DHT22;10134;50.952;6.930;2022-07-09T00:56:30;21.90;92.40
19945;DHT22;10134;50.952;6.930;2022-07-09T00:58:57;21.90;92.60
19945;DHT22;10134;50.952;6.930;2022-07-09T01:01:26;21.90;92.70
19945;DHT22;10134;50.952;6.930;2022-07-09T01:03:54;21.90;92.80
19945;DHT22;10134;50.952;6.930;2022-07-09T01:06:21;21.80;92.80
19945;DHT22;10134;50.952;6.930;2022-07-09T01:08:48;21.80;92.90
19945;DHT22;10134;50.952;6.930;2022-07-09T01:11:15;21.80;93.10
19945;DHT22;10134;50.952;6.930;2022-07-09T01:13:43;21.70;93.00
19945;DHT22;10134;50.952;6.930;2022-07-09T01:16:14;21.70;93.20
19945;DHT22;10134;50.952;6.930;2022-07-09T01:18:46;21.70;93.20
19945;DHT22;10134;50.952;6.930;2022-07-09T01:21:14;21.70;93.30
19945;DHT22;10134;50.952;6.930;2022-07-09T01:23:42;21.60;93.30
19945;DHT22;10134;50.952;6.930;2022-07-09T01:26:09;21.60;93.50
19945;DHT22;10134;50.952;6.930;2022-07-09T01:28:36;21.60;93.60
19945;DHT22;10134;50.952;6.930;2022-07-09T01:31:03;21.60;93.70
19945;DHT22;10134;50.952;6.930;2022-07-09T01:33:31;21.50;93.70
19945;DHT22;10134;50.952;6.930;2022-07-09T01:36:00;21.50;93.90
19945;DHT22;10134;50.952;6.930;2022-07-09T01:38:27;21.50;93.90
19945;DHT22;10134;50.952;6.930;2022-07-09T01:40:54;21.50;94.10
19945;DHT22;10134;50.952;6.930;2022-07-09T01:43:22;21.40;94.10
19945;DHT22;10134;50.952;6.930;2022-07-09T01:45:49;21.40;94.20
19945;DHT22;10134;50.952;6.930;2022-07-09T01:48:16;21.40;94.40
19945;DHT22;10134;50.952;6.930;2022-07-09T01:50:44;21.40;94.50
19945;DHT22;10134;50.952;6.930;2022-07-09T01:53:11;21.30;94.50
19945;DHT22;10134;50.952;6.930;2022-07-09T01:55:38;21.30;94.60
19945;DHT22;10134;50.952;6.930;2022-07-09T01:58:05;21.30;94.70
19945;DHT22;10134;50.952;6.930;2022-07-09T02:00:33;21.30;94.80
19945;DHT22;10134;50.952;6.930;2022-07-09T02:03:00;21.20;94.80
19945;DHT22;10134;50.952;6.930;2022-07-09T02:05:27;21.20;95.30
19945;DHT22;10134;50.952;6.930;2022-07-09T02:07:54;21.20;95.10
19945;DHT22;10134;50.952;6.930;2022-07-09T02:10:22;21.20;95.20
19945;DHT22;10134;50.952;6.930;2022-07-09T02:12:49;21.20;95.30
19945;DHT22;10134;50.952;6.930;2022-07-09T02:15:16;21.10;95.20
19945;DHT22;10134;50.952;6.930;2022-07-09T02:17:44;21.10;95.30
19945;DHT22;10134;50.952;6.930;2022-07-09T02:20:11;21.10;95.50
19945;DHT22;10134;50.952;6.930;2022-07-09T02:22:39;21.10;95.50
19945;DHT22;10134;50.952;6.930;2022-07-09T02:25:06;21.10;95.60
19945;DHT22;10134;50.952;6.930;2022-07-09T02:27:34;21.10;95.70
19945;DHT22;10134;50.952;6.930;2022-07-09T02:30:01;21.00;95.70
19945;DHT22;10134;50.952;6.930;2022-07-09T02:32:28;21.00;95.70
19945;DHT22;10134;50.952;6.930;2022-07-09T02:34:56;21.00;95.90
19945;DHT22;10134;50.952;6.930;2022-07-09T02:37:23;21.00;95.90
19945;DHT22;10134;50.952;6.930;2022-07-09T02:39:50;21.00;96.00
19945;DHT22;10134;50.952;6.930;2022-07-09T02:42:17;21.00;96.00
19945;DHT22;10134;50.952;6.930;2022-07-09T02:44:45;20.90;96.00
19945;DHT22;10134;50.952;6.930;2022-07-09T02:47:12;20.90;96.10
19945;DHT22;10134;50.952;6.930;2022-07-09T02:49:39;20.90;96.10
19945;DHT22;10134;50.952;6.930;2022-07-09T02:52:07;20.90;96.10
19945;DHT22;10134;50.952;6.930;2022-07-09T02:54:34;20.90;96.20
19945;DHT22;10134;50.952;6.930;2022-07-09T02:57:01;20.90;96.30
19945;DHT22;10134;50.952;6.930;2022-07-09T02:59:28;20.90;96.30
19945;DHT22;10134;50.952;6.930;2022-07-09T03:01:56;20.90;96.30
19945;DHT22;10134;50.952;6.930;2022-07-09T03:04:23;20.90;96.40
19945;DHT22;10134;50.952;6.930;2022-07-09T03:06:50;20.90;96.40
19945;DHT22;10134;50.952;6.930;2022-07-09T03:09:18;20.90;96.40
19945;DHT22;10134;50.952;6.930;2022-07-09T03:11:45;20.90;96.50
19945;DHT22;10134;50.952;6.930;2022-07-09T03:14:12;20.90;96.50
19945;DHT22;10134;50.952;6.930;2022-07-09T03:16:39;20.90;96.60
19945;DHT22;10134;50.952;6.930;2022-07-09T03:19:07;20.90;96.70
19945;DHT22;10134;50.952;6.930;2022-07-09T03:21:34;20.90;96.70
19945;DHT22;10134;50.952;6.930;2022-07-09T03:24:01;20.90;96.80
19945;DHT22;10134;50.952;6.930;2022-07-09T03:26:29;20.90;96.70
19945;DHT22;10134;50.952;6.930;2022-07-09T03:28:56;20.90;96.70
19945;DHT22;10134;50.952;6.930;2022-07-09T03:31:23;20.90;96.70
19945;DHT22;10134;50.952;6.930;2022-07-09T03:33:50;20.80;96.70
19945;DHT22;10134;50.952;6.930;2022-07-09T03:36:21;20.80;96.70
19945;DHT22;10134;50.952;6.930;2022-07-09T03:38:49;20.80;96.70
19945;DHT22;10134;50.952;6.930;2022-07-09T03:41:16;20.80;96.70
19945;DHT22;10134;50.952;6.930;2022-07-09T03:43:43;20.80;96.60
19945;DHT22;10134;50.952;6.930;2022-07-09T03:46:11;20.80;96.60
19945;DHT22;10134;50.952;6.930;2022-07-09T03:48:38;20.80;96.60
19945;DHT22;10134;50.952;6.930;2022-07-09T03:51:05;20.80;96.50
19945;DHT22;10134;50.952;6.930;2022-07-09T03:53:33;20.80;96.60
19945;DHT22;10134;50.952;6.930;2022-07-09T03:56:01;20.80;96.60
19945;DHT22;10134;50.952;6.930;2022-07-09T03:58:28;20.80;96.60
19945;DHT22;10134;50.952;6.930;2022-07-09T04:00:55;20.80;96.60
19945;DHT22;10134;50.952;6.930;2022-07-09T04:03:23;20.80;96.60
19945;DHT22;10134;50.952;6.930;2022-07-09T04:05:50;20.80;96.70
19945;DHT22;10134;50.952;6.930;2022-07-09T04:08:17;20.80;96.70
19945;DHT22;10134;50.952;6.930;2022-07-09T04:10:44;20.80;96.70
19945;DHT22;10134;50.952;6.930;2022-07-09T04:13:12;20.80;96.80
19945;DHT22;10134;50.952;6.930;2022-07-09T04:15:41;20.80;96.80
19945;DHT22;10134;50.952;6.930;2022-07-09T04:18:08;20.80;96.90
19945;DHT22;10134;50.952;6.930;2022-07-09T04:20:35;20.80;96.90
19945;DHT22;10134;50.952;6.930;2022-07-09T04:23:03;20.80;97.00
19945;DHT22;10134;50.952;6.930;2022-07-09T04:25:30;20.70;97.00
19945;DHT22;10134;50.952;6.930;2022-07-09T04:27:57;20.70;97.10
19945;DHT22;10134;50.952;6.930;2022-07-09T04:30:26;20.70;97.20
19945;DHT22;10134;50.952;6.930;2022-07-09T04:32:54;20.70;97.20
19945;DHT22;10134;50.952;6.930;2022-07-09T04:35:21;20.70;97.30
19945;DHT22;10134;50.952;6.930;2022-07-09T04:37:48;20.70;97.40
19945;DHT22;10134;50.952;6.930;2022-07-09T04:40:16;20.60;97.40
19945;DHT22;10134;50.952;6.930;2022-07-09T04:42:43;20.70;97.70
19945;DHT22;10134;50.952;6.930;2022-07-09T04:45:10;20.70;97.80
19945;DHT22;10134;50.952;6.930;2022-07-09T04:47:38;20.70;97.90
19945;DHT22;10134;50.952;6.930;2022-07-09T04:50:06;20.70;98.00
19945;DHT22;10134;50.952;6.930;2022-07-09T04:52:33;20.70;98.10
19945;DHT22;10134;50.952;6.930;2022-07-09T04:55:00;20.60;98.10
19945;DHT22;10134;50.952;6.930;2022-07-09T04:57:27;20.60;98.20
19945;DHT22;10134;50.952;6.930;2022-07-09T05:00:02;20.60;98.30
19945;DHT22;10134;50.952;6.930;2022-07-09T05:02:31;20.60;98.40
19945;DHT22;10134;50.952;6.930;2022-07-09T05:04:58;20.60;98.40
19945;DHT22;10134;50.952;6.930;2022-07-09T05:07:25;20.60;98.40
19945;DHT22;10134;50.952;6.930;2022-07-09T05:09:52;20.60;98.50
19945;DHT22;10134;50.952;6.930;2022-07-09T05:12:20;20.70;98.70
19945;DHT22;10134;50.952;6.930;2022-07-09T05:14:47;20.70;98.80
19945;DHT22;10134;50.952;6.930;2022-07-09T05:17:14;20.70;98.80
19945;DHT22;10134;50.952;6.930;2022-07-09T05:19:42;20.70;98.80
19945;DHT22;10134;50.952;6.930;2022-07-09T05:22:09;20.70;98.90
19945;DHT22;10134;50.952;6.930;2022-07-09T05:24:36;20.70;98.90
19945;DHT22;10134;50.952;6.930;2022-07-09T05:27:04;20.70;99.30
19945;DHT22;10134;50.952;6.930;2022-07-09T05:29:31;20.70;99.00
19945;DHT22;10134;50.952;6.930;2022-07-09T05:31:59;20.70;99.10
19945;DHT22;10134;50.952;6.930;2022-07-09T05:34:26;20.70;99.20
19945;DHT22;10134;50.952;6.930;2022-07-09T05:36:54;20.70;99.30
19945;DHT22;10134;50.952;6.930;2022-07-09T05:39:25;20.70;99.40
19945;DHT22;10134;50.952;6.930;2022-07-09T05:41:52;20.80;99.50
19945;DHT22;10134;50.952;6.930;2022-07-09T05:44:19;20.80;99.50
19945;DHT22;10134;50.952;6.930;2022-07-09T05:46:51;20.80;99.70
19945;DHT22;10134;50.952;6.930;2022-07-09T05:49:18;20.80;99.70
19945;DHT22;10134;50.952;6.930;2022-07-09T05:51:45;20.80;99.70
19945;DHT22;10134;50.952;6.930;2022-07-09T05:54:13;20.80;99.90
19945;DHT22;10134;50.952;6.930;2022-07-09T05:56:40;20.90;99.90
19945;DHT22;10134;50.952;6.930;2022-07-09T05:59:08;20.90;99.90
19945;DHT22;10134;50.952;6.930;2022-07-09T06:01:36;20.90;99.90
19945;DHT22;10134;50.952;6.930;2022-07-09T06:04:07;20.90;99.90
19945;DHT22;10134;50.952;6.930;2022-07-09T06:06:35;20.90;99.90
19945;DHT22;10134;50.952;6.930;2022-07-09T06:09:02;20.90;99.90
19945;DHT22;10134;50.952;6.930;2022-07-09T06:11:30;21.00;99.90
19945;DHT22;10134;50.952;6.930;2022-07-09T06:13:57;20.90;99.90
19945;DHT22;10134;50.952;6.930;2022-07-09T06:16:24;21.00;99.90
19945;DHT22;10134;50.952;6.930;2022-07-09T06:18:52;21.00;99.90
19945;DHT22;10134;50.952;6.930;2022-07-09T06:21:19;21.00;99.90
19945;DHT22;10134;50.952;6.930;2022-07-09T06:23:46;21.10;99.90
19945;DHT22;10134;50.952;6.930;2022-07-09T06:26:14;21.00;99.90
19945;DHT22;10134;50.952;6.930;2022-07-09T06:28:41;21.10;99.90
19945;DHT22;10134;50.952;6.930;2022-07-09T06:31:08;21.10;99.90
19945;DHT22;10134;50.952;6.930;2022-07-09T06:33:35;21.10;99.90
19945;DHT22;10134;50.952;6.930;2022-07-09T06:36:03;21.10;99.90
19945;DHT22;10134;50.952;6.930;2022-07-09T06:38:30;21.10;99.90
19945;DHT22;10134;50.952;6.930;2022-07-09T06:40:58;21.10;99.90
19945;DHT22;10134;50.952;6.930;2022-07-09T06:43:26;21.10;99.90
19945;DHT22;10134;50.952;6.930;2022-07-09T06:45:58;21.10;99.90
19945;DHT22;10134;50.952;6.930;2022-07-09T06:48:25;21.20;99.90
19945;DHT22;10134;50.952;6.930;2022-07-09T06:50:52;21.20;99.90
19945;DHT22;10134;50.952;6.930;2022-07-09T06:53:20;21.20;99.90
19945;DHT22;10134;50.952;6.930;2022-07-09T06:55:47;21.30;99.90
19945;DHT22;10134;50.952;6.930;2022-07-09T06:58:14;21.20;99.90
19945;DHT22;10134;50.952;6.930;2022-07-09T07:00:41;21.30;99.90
19945;DHT22;10134;50.952;6.930;2022-07-09T07:03:09;21.30;99.90
19945;DHT22;10134;50.952;6.930;2022-07-09T07:05:36;21.30;99.90
19945;DHT22;10134;50.952;6.930;2022-07-09T07:08:03;21.40;99.90
19945;DHT22;10134;50.952;6.930;2022-07-09T07:10:31;21.40;99.90
19945;DHT22;10134;50.952;6.930;2022-07-09T07:12:58;21.40;99.80
19945;DHT22;10134;50.952;6.930;2022-07-09T07:15:25;21.40;99.60
19945;DHT22;10134;50.952;6.930;2022-07-09T07:17:53;21.50;99.40
19945;DHT22;10134;50.952;6.930;2022-07-09T07:20:24;21.50;98.90
19945;DHT22;10134;50.952;6.930;2022-07-09T07:22:52;21.50;98.70
19945;DHT22;10134;50.952;6.930;2022-07-09T07:25:19;21.60;98.70
19945;DHT22;10134;50.952;6.930;2022-07-09T07:27:46;21.60;98.70
19945;DHT22;10134;50.952;6.930;2022-07-09T07:30:14;21.60;99.00
19945;DHT22;10134;50.952;6.930;2022-07-09T07:32:41;21.60;98.50
19945;DHT22;10134;50.952;6.930;2022-07-09T07:35:08;21.70;98.40
19945;DHT22;10134;50.952;6.930;2022-07-09T07:37:36;21.70;98.30
19945;DHT22;10134;50.952;6.930;2022-07-09T07:40:03;21.70;98.20
19945;DHT22;10134;50.952;6.930;2022-07-09T07:42:37;21.80;98.20
19945;DHT22;10134;50.952;6.930;2022-07-09T07:45:05;21.80;98.20
19945;DHT22;10134;50.952;6.930;2022-07-09T07:47:32;21.80;98.00
19945;DHT22;10134;50.952;6.930;2022-07-09T07:50:00;21.80;98.00
19945;DHT22;10134;50.952;6.930;2022-07-09T07:52:27;21.90;98.00
19945;DHT22;10134;50.952;6.930;2022-07-09T07:54:54;21.90;97.90
19945;DHT22;10134;50.952;6.930;2022-07-09T07:57:21;21.90;97.90
19945;DHT22;10134;50.952;6.930;2022-07-09T07:59:49;21.90;97.80
19945;DHT22;10134;50.952;6.930;2022-07-09T08:02:16;22.00;97.90
19945;DHT22;10134;50.952;6.930;2022-07-09T08:04:43;22.00;97.60
19945;DHT22;10134;50.952;6.930;2022-07-09T08:07:11;22.00;97.50
19945;DHT22;10134;50.952;6.930;2022-07-09T08:09:38;22.10;97.30
19945;DHT22;10134;50.952;6.930;2022-07-09T08:12:06;22.10;97.20
19945;DHT22;10134;50.952;6.930;2022-07-09T08:14:33;22.10;97.10
19945;DHT22;10134;50.952;6.930;2022-07-09T08:17:01;22.20;97.10
19945;DHT22;10134;50.952;6.930;2022-07-09T08:19:28;22.20;97.00
19945;DHT22;10134;50.952;6.930;2022-07-09T08:21:59;22.20;96.80
19945;DHT22;10134;50.952;6.930;2022-07-09T08:24:27;22.30;96.80
19945;DHT22;10134;50.952;6.930;2022-07-09T08:26:54;22.30;96.80
19945;DHT22;10134;50.952;6.930;2022-07-09T08:29:21;22.30;96.80
19945;DHT22;10134;50.952;6.930;2022-07-09T08:31:48;22.40;96.80
19945;DHT22;10134;50.952;6.930;2022-07-09T08:34:17;22.40;96.70
19945;DHT22;10134;50.952;6.930;2022-07-09T08:36:45;22.50;96.40
19945;DHT22;10134;50.952;6.930;2022-07-09T08:39:12;22.50;96.10
19945;DHT22;10134;50.952;6.930;2022-07-09T08:41:39;22.50;96.00
19945;DHT22;10134;50.952;6.930;2022-07-09T08:44:10;22.50;95.80
19945;DHT22;10134;50.952;6.930;2022-07-09T08:46:41;22.50;95.60
19945;DHT22;10134;50.952;6.930;2022-07-09T08:49:09;22.60;95.80
19945;DHT22;10134;50.952;6.930;2022-07-09T08:51:37;22.60;95.70
19945;DHT22;10134;50.952;6.930;2022-07-09T08:54:07;22.70;95.80
19945;DHT22;10134;50.952;6.930;2022-07-09T08:56:35;22.70;95.80
19945;DHT22;10134;50.952;6.930;2022-07-09T08:59:03;22.80;95.90
19945;DHT22;10134;50.952;6.930;2022-07-09T09:01:30;22.80;95.60
19945;DHT22;10134;50.952;6.930;2022-07-09T09:03:58;22.90;95.50
19945;DHT22;10134;50.952;6.930;2022-07-09T09:06:25;22.90;95.50
19945;DHT22;10134;50.952;6.930;2022-07-09T09:08:54;22.90;94.90
19945;DHT22;10134;50.952;6.930;2022-07-09T09:11:24;22.90;95.00
19945;DHT22;10134;50.952;6.930;2022-07-09T09:13:52;23.00;94.90
19945;DHT22;10134;50.952;6.930;2022-07-09T09:16:21;23.00;94.90
19945;DHT22;10134;50.952;6.930;2022-07-09T09:18:51;23.00;94.80
19945;DHT22;10134;50.952;6.930;2022-07-09T09:21:21;23.10;94.60
19945;DHT22;10134;50.952;6.930;2022-07-09T09:29:05;23.20;94.20
19945;DHT22;10134;50.952;6.930;2022-07-09T09:31:36;23.20;94.10
19945;DHT22;10134;50.952;6.930;2022-07-09T09:34:13;23.30;94.10
19945;DHT22;10134;50.952;6.930;2022-07-09T09:36:44;23.30;93.60
19945;DHT22;10134;50.952;6.930;2022-07-09T09:41:53;23.30;93.40
19945;DHT22;10134;50.952;6.930;2022-07-09T09:44:31;23.30;93.50
19945;DHT22;10134;50.952;6.930;2022-07-09T09:47:05;23.30;93.50
19945;DHT22;10134;50.952;6.930;2022-07-09T09:49:37;23.40;93.40
19945;DHT22;10134;50.952;6.930;2022-07-09T09:52:07;23.40;93.40
19945;DHT22;10134;50.952;6.930;2022-07-09T09:54:39;23.50;93.40
19945;DHT22;10134;50.952;6.930;2022-07-09T09:57:11;23.50;93.40
19945;DHT22;10134;50.952;6.930;2022-07-09T09:59:41;23.60;93.50
19945;DHT22;10134;50.952;6.930;2022-07-09T10:02:10;23.70;93.50
19945;DHT22;10134;50.952;6.930;2022-07-09T10:04:45;23.80;93.40
19945;DHT22;10134;50.952;6.930;2022-07-09T10:07:13;23.80;93.10
19945;DHT22;10134;50.952;6.930;2022-07-09T10:09:51;23.90;92.90
19945;DHT22;10134;50.952;6.930;2022-07-09T10:12:29;23.90;92.70
19945;DHT22;10134;50.952;6.930;2022-07-09T10:14:57;23.90;92.50
19945;DHT22;10134;50.952;6.930;2022-07-09T10:17:25;24.00;91.90
19945;DHT22;10134;50.952;6.930;2022-07-09T10:20:11;24.00;91.70
19945;DHT22;10134;50.952;6.930;2022-07-09T10:22:45;24.00;91.70
19945;DHT22;10134;50.952;6.930;2022-07-09T10:25:29;24.10;91.30
19945;DHT22;10134;50.952;6.930;2022-07-09T10:27:56;24.10;91.50
19945;DHT22;10134;50.952;6.930;2022-07-09T10:30:29;24.10;91.30
19945;DHT22;10134;50.952;6.930;2022-07-09T10:33:23;24.20;91.40
19945;DHT22;10134;50.952;6.930;2022-07-09T10:35:52;24.20;91.00
19945;DHT22;10134;50.952;6.930;2022-07-09T10:38:20;24.20;91.00
19945;DHT22;10134;50.952;6.930;2022-07-09T10:40:58;24.20;91.00
19945;DHT22;10134;50.952;6.930;2022-07-09T10:43:43;24.30;91.10
19945;DHT22;10134;50.952;6.930;2022-07-09T10:46:15;24.30;90.70
19945;DHT22;10134;50.952;6.930;2022-07-09T10:48:44;24.40;90.90
19945;DHT22;10134;50.952;6.930;2022-07-09T10:51:19;24.40;90.90
19945;DHT22;10134;50.952;6.930;2022-07-09T10:53:47;24.40;90.80
19945;DHT22;10134;50.952;6.930;2022-07-09T10:56:19;24.50;90.20
19945;DHT22;10134;50.952;6.930;2022-07-09T10:58:47;24.50;90.20
19945;DHT22;10134;50.952;6.930;2022-07-09T11:01:23;24.50;90.50
19945;DHT22;10134;50.952;6.930;2022-07-09T11:03:52;24.60;90.20
19945;DHT22;10134;50.952;6.930;2022-07-09T11:06:21;24.60;90.30
19945;DHT22;10134;50.952;6.930;2022-07-09T11:08:49;24.60;90.30
19945;DHT22;10134;50.952;6.930;2022-07-09T11:11:25;24.70;90.30
19945;DHT22;10134;50.952;6.930;2022-07-09T11:13:53;24.70;89.90
19945;DHT22;10134;50.952;6.930;2022-07-09T11:16:23;24.70;90.00
19945;DHT22;10134;50.952;6.930;2022-07-09T11:18:51;24.80;90.10
19945;DHT22;10134;50.952;6.930;2022-07-09T11:21:26;24.80;90.00
19945;DHT22;10134;50.952;6.930;2022-07-09T11:23:53;24.80;89.90
19945;DHT22;10134;50.952;6.930;2022-07-09T11:26:21;24.90;89.60
19945;DHT22;10134;50.952;6.930;2022-07-09T11:28:48;24.90;88.00
19945;DHT22;10134;50.952;6.930;2022-07-09T11:31:16;24.90;87.10
19945;DHT22;10134;50.952;6.930;2022-07-09T11:33:44;24.90;86.30
19945;DHT22;10134;50.952;6.930;2022-07-09T11:36:41;24.90;87.40
19945;DHT22;10134;50.952;6.930;2022-07-09T11:39:09;24.90;87.40
19945;DHT22;10134;50.952;6.930;2022-07-09T11:41:45;24.90;87.40
19945;DHT22;10134;50.952;6.930;2022-07-09T11:44:24;24.90;87.30
19945;DHT22;10134;50.952;6.930;2022-07-09T11:47:09;24.90;87.70
19945;DHT22;10134;50.952;6.930;2022-07-09T11:49:44;25.00;88.30
19945;DHT22;10134;50.952;6.930;2022-07-09T11:52:24;24.90;86.20
19945;DHT22;10134;50.952;6.930;2022-07-09T11:55:01;24.90;86.50
19945;DHT22;10134;50.952;6.930;2022-07-09T11:57:30;24.90;86.90
19945;DHT22;10134;50.952;6.930;2022-07-09T11:59:58;25.00;87.50
19945;DHT22;10134;50.952;6.930;2022-07-09T12:02:33;25.00;87.80
19945;DHT22;10134;50.952;6.930;2022-07-09T12:05:03;25.00;87.50
19945;DHT22;10134;50.952;6.930;2022-07-09T12:07:31;25.10;87.80
19945;DHT22;10134;50.952;6.930;2022-07-09T12:10:03;25.10;88.10
19945;DHT22;10134;50.952;6.930;2022-07-09T12:12:32;25.20;87.20
19945;DHT22;10134;50.952;6.930;2022-07-09T12:15:00;25.20;87.10
19945;DHT22;10134;50.952;6.930;2022-07-09T12:17:34;25.20;87.10
19945;DHT22;10134;50.952;6.930;2022-07-09T12:20:03;25.30;86.90
19945;DHT22;10134;50.952;6.930;2022-07-09T12:22:34;25.30;86.70
19945;DHT22;10134;50.952;6.930;2022-07-09T12:25:01;25.30;86.90
19945;DHT22;10134;50.952;6.930;2022-07-09T12:27:29;25.30;86.20
19945;DHT22;10134;50.952;6.930;2022-07-09T12:29:56;25.30;86.50
19945;DHT22;10134;50.952;6.930;2022-07-09T12:32:24;25.30;86.00
19945;DHT22;10134;50.952;6.930;2022-07-09T12:34:52;25.30;85.80
19945;DHT22;10134;50.952;6.930;2022-07-09T12:37:19;25.30;85.40
19945;DHT22;10134;50.952;6.930;2022-07-09T12:39:46;25.30;85.70
19945;DHT22;10134;50.952;6.930;2022-07-09T12:42:18;25.30;86.00
19945;DHT22;10134;50.952;6.930;2022-07-09T12:44:46;25.30;85.80
19945;DHT22;10134;50.952;6.930;2022-07-09T12:47:14;25.30;85.90
19945;DHT22;10134;50.952;6.930;2022-07-09T12:49:41;25.30;86.10
19945;DHT22;10134;50.952;6.930;2022-07-09T12:52:09;25.40;86.20
19945;DHT22;10134;50.952;6.930;2022-07-09T12:54:36;25.40;86.10
19945;DHT22;10134;50.952;6.930;2022-07-09T12:57:04;25.30;85.80
19945;DHT22;10134;50.952;6.930;2022-07-09T12:59:35;25.30;85.90
19945;DHT22;10134;50.952;6.930;2022-07-09T13:02:03;25.30;86.00
19945;DHT22;10134;50.952;6.930;2022-07-09T13:04:31;25.30;85.90
19945;DHT22;10134;50.952;6.930;2022-07-09T13:06:59;25.30;86.20
19945;DHT22;10134;50.952;6.930;2022-07-09T13:09:26;25.20;86.10
19945;DHT22;10134;50.952;6.930;2022-07-09T13:11:53;25.20;88.00
19945;DHT22;10134;50.952;6.930;2022-07-09T13:14:21;25.10;92.10
19945;DHT22;10134;50.952;6.930;2022-07-09T13:16:48;25.10;92.70
19945;DHT22;10134;50.952;6.930;2022-07-09T13:19:35;25.00;93.90
19945;DHT22;10134;50.952;6.930;2022-07-09T13:22:03;24.90;94.40
19945;DHT22;10134;50.952;6.930;2022-07-09T13:24:30;24.80;95.00
19945;DHT22;10134;50.952;6.930;2022-07-09T13:26:57;24.80;95.80
19945;DHT22;10134;50.952;6.930;2022-07-09T13:29:25;24.70;96.00
19945;DHT22;10134;50.952;6.930;2022-07-09T13:31:52;24.70;96.30
19945;DHT22;10134;50.952;6.930;2022-07-09T13:34:19;24.60;96.60
19945;DHT22;10134;50.952;6.930;2022-07-09T13:36:47;24.60;96.70
19945;DHT22;10134;50.952;6.930;2022-07-09T13:39:14;24.50;96.80
19945;DHT22;10134;50.952;6.930;2022-07-09T13:41:42;24.30;96.80
19945;DHT22;10134;50.952;6.930;2022-07-09T13:44:09;24.30;97.10
19945;DHT22;10134;50.952;6.930;2022-07-09T13:46:36;24.20;97.40
19945;DHT22;10134;50.952;6.930;2022-07-09T13:49:04;24.20;97.70
19945;DHT22;10134;50.952;6.930;2022-07-09T13:51:31;24.10;98.10
19945;DHT22;10134;50.952;6.930;2022-07-09T13:54:00;24.10;98.50
19945;DHT22;10134;50.952;6.930;2022-07-09T13:56:27;24.00;98.80
19945;DHT22;10134;50.952;6.930;2022-07-09T13:58:55;24.00;99.20
19945;DHT22;10134;50.952;6.930;2022-07-09T14:01:22;23.90;99.30
19945;DHT22;10134;50.952;6.930;2022-07-09T14:03:49;23.90;99.60
19945;DHT22;10134;50.952;6.930;2022-07-09T14:06:17;23.90;99.90
19945;DHT22;10134;50.952;6.930;2022-07-09T14:09:04;23.90;99.90
19945;DHT22;10134;50.952;6.930;2022-07-09T14:11:32;23.90;99.90
19945;DHT22;10134;50.952;6.930;2022-07-09T14:13:59;23.90;99.90
19945;DHT22;10134;50.952;6.930;2022-07-09T14:16:27;23.90;99.90
19945;DHT22;10134;50.952;6.930;2022-07-09T14:18:55;24.00;99.90
19945;DHT22;10134;50.952;6.930;2022-07-09T14:21:22;24.10;99.90
19945;DHT22;10134;50.952;6.930;2022-07-09T14:23:50;24.10;99.90
19945;DHT22;10134;50.952;6.930;2022-07-09T14:26:17;24.20;99.90
19945;DHT22;10134;50.952;6.930;2022-07-09T14:28:45;24.30;99.90
19945;DHT22;10134;50.952;6.930;2022-07-09T14:31:12;24.40;99.90
19945;DHT22;10134;50.952;6.930;2022-07-09T14:33:40;24.40;99.80
19945;DHT22;10134;50.952;6.930;2022-07-09T14:36:07;24.50;99.70
19945;DHT22;10134;50.952;6.930;2022-07-09T14:38:34;24.50;99.50
19945;DHT22;10134;50.952;6.930;2022-07-09T14:41:03;24.50;99.80
19945;DHT22;10134;50.952;6.930;2022-07-09T14:43:30;24.50;99.30
19945;DHT22;10134;50.952;6.930;2022-07-09T14:45:58;24.60;99.50
19945;DHT22;10134;50.952;6.930;2022-07-09T14:48:25;24.70;99.50
19945;DHT22;10134;50.952;6.930;2022-07-09T14:50:52;24.70;99.40
19945;DHT22;10134;50.952;6.930;2022-07-09T14:53:20;24.80;99.10
19945;DHT22;10134;50.952;6.930;2022-07-09T14:55:47;24.90;98.90
19945;DHT22;10134;50.952;6.930;2022-07-09T14:58:15;24.90;98.70
19945;DHT22;10134;50.952;6.930;2022-07-09T15:00:42;25.00;98.40
19945;DHT22;10134;50.952;6.930;2022-07-09T15:03:10;25.00;98.10
19945;DHT22;10134;50.952;6.930;2022-07-09T15:05:37;25.10;98.00
19945;DHT22;10134;50.952;6.930;2022-07-09T15:08:10;25.20;97.90
19945;DHT22;10134;50.952;6.930;2022-07-09T15:10:38;25.20;97.70
19945;DHT22;10134;50.952;6.930;2022-07-09T15:13:05;25.20;97.60
19945;DHT22;10134;50.952;6.930;2022-07-09T15:15:34;25.30;97.50
19945;DHT22;10134;50.952;6.930;2022-07-09T15:18:03;25.30;97.30
19945;DHT22;10134;50.952;6.930;2022-07-09T15:20:31;25.20;97.10
19945;DHT22;10134;50.952;6.930;2022-07-09T15:22:59;25.20;96.90
19945;DHT22;10134;50.952;6.930;2022-07-09T15:25:27;25.30;96.90
19945;DHT22;10134;50.952;6.930;2022-07-09T15:27:58;25.30;96.90
19945;DHT22;10134;50.952;6.930;2022-07-09T15:30:25;25.40;96.90
19945;DHT22;10134;50.952;6.930;2022-07-09T15:32:53;25.50;96.40
19945;DHT22;10134;50.952;6.930;2022-07-09T15:35:20;25.60;95.90
19945;DHT22;10134;50.952;6.930;2022-07-09T15:37:48;25.70;95.20
19945;DHT22;10134;50.952;6.930;2022-07-09T15:40:16;25.80;94.40
19945;DHT22;10134;50.952;6.930;2022-07-09T15:42:46;25.90;94.20
19945;DHT22;10134;50.952;6.930;2022-07-09T15:45:14;26.00;93.70
19945;DHT22;10134;50.952;6.930;2022-07-09T15:47:42;26.20;93.50